Hillsborough, New Hampshire
Current Conditions -  °F | °C
As of 12:51 PM on Tuesday 21 Oct 2014 (Local Time) from KCON Reporting Station
Light Rain Light Rain  
Wind Chill: 52°   Ceiling: 1600
Heat Index: 52°   Visibility: 5mi
Dew Point: 48°   Wind: 3mph
Humidity: 86%   Direction: 30°NNE
Pressure: 29.98"   Gusts: NA
Location:  43.1281°N, 71.9266°W
Report Text: KCON 211651Z AUTO 03003KT 5SM -RA BR BKN016 BKN022 OVC028 11/09 A2998 RMK AO2 RAB22 SLP152 P0002 T01110089
Loading
Personal Weather Stations






























Interactive Weather Map
Tropical Storm Tracking
New forecast layout! Learn more

10-Day Weather Forecast

Advertisements
Track Severe Weather on mobile